Time;durP1;ratioP1;P1;durP2;ratioP2;P2;SDS_P1;SDS_P2;PMS_P1;PMS_P2;Temp;Humidity;BMP_temperature;BMP_pressure;BME280_temperature;BME280_humidity;BME280_pressure;Samples;Min_cycle;Max_cycle;Signal;HPM_P1;HPM_P2
2022/07/31 00:00:59;;;;;;;9.95;2.05;;;19.40;99.90;;;;;;5044788;28;20230;-75
2022/07/31 00:03:43;;;;;;;3.78;1.92;;;19.30;99.90;;;;;;5045047;28;20191;-74
2022/07/31 00:06:27;;;;;;;2.55;1.90;;;19.30;99.90;;;;;;5045815;28;20215;-74
2022/07/31 00:09:11;;;;;;;2.58;1.95;;;19.30;99.90;;;;;;5037505;28;20210;-75
2022/07/31 00:11:55;;;;;;;2.88;1.75;;;19.30;99.90;;;;;;5045287;28;20691;-75
2022/07/31 00:14:39;;;;;;;5.60;1.88;;;19.30;99.90;;;;;;5049022;28;20207;-74
2022/07/31 00:17:23;;;;;;;2.92;1.80;;;19.30;99.90;;;;;;5051140;28;20187;-74
2022/07/31 00:20:12;;;;;;;4.20;1.92;;;19.20;99.90;;;;;;5047613;28;20294;-75
2022/07/31 00:22:56;;;;;;;4.35;1.90;;;19.20;99.90;;;;;;5048981;28;20177;-75
2022/07/31 00:25:40;;;;;;;2.42;1.88;;;19.20;99.90;;;;;;5050559;28;20677;-75
2022/07/31 00:28:24;;;;;;;2.40;2.13;;;19.20;99.90;;;;;;5043542;28;20214;-74
2022/07/31 00:31:09;;;;;;;3.10;2.00;;;19.20;99.90;;;;;;5042740;28;20190;-75
2022/07/31 00:33:53;;;;;;;3.75;1.88;;;19.20;99.90;;;;;;5048516;28;20203;-75
2022/07/31 00:36:37;;;;;;;2.75;1.90;;;19.20;99.90;;;;;;5049175;28;20706;-75
2022/07/31 00:39:22;;;;;;;2.55;1.88;;;19.20;99.90;;;;;;5043916;28;20249;-75
2022/07/31 00:42:21;;;;;;;3.08;1.67;;;19.20;99.90;;;;;;5047201;28;20740;-75
2022/07/31 00:45:06;;;;;;;2.30;1.70;;;19.10;99.90;;;;;;5051575;28;20256;-74
2022/07/31 00:47:50;;;;;;;3.75;1.73;;;19.10;99.90;;;;;;5040779;28;20195;-74
2022/07/31 00:50:36;;;;;;;3.47;2.05;;;19.10;99.90;;;;;;5048003;28;20226;-75
2022/07/31 00:53:20;;;;;;;5.85;2.10;;;19.10;99.90;;;;;;5043124;28;20245;-75
2022/07/31 00:56:04;;;;;;;6.65;2.25;;;19.10;99.90;;;;;;5041686;28;20211;-74
2022/07/31 00:58:49;;;;;;;6.03;2.33;;;19.10;99.90;;;;;;5046169;28;20215;-75
2022/07/31 01:01:33;;;;;;;8.83;1.90;;;19.10;99.90;;;;;;5045517;28;20202;-73
2022/07/31 01:04:17;;;;;;;3.05;2.17;;;19.10;99.90;;;;;;5038980;28;20634;-74
2022/07/31 01:07:02;;;;;;;6.50;2.28;;;19.10;99.90;;;;;;5045594;28;20271;-75
2022/07/31 01:09:48;;;;;;;3.53;2.45;;;19.10;99.90;;;;;;5044716;28;20313;-74
2022/07/31 01:12:44;;;;;;;6.45;2.65;;;19.00;99.90;;;;;;5051469;28;20205;-74
2022/07/31 01:15:29;;;;;;;4.00;2.10;;;19.00;99.90;;;;;;5045551;28;20257;-74
2022/07/31 01:18:13;;;;;;;4.47;1.95;;;19.00;99.90;;;;;;5044305;28;20202;-75
2022/07/31 01:21:04;;;;;;;2.40;2.20;;;19.00;99.90;;;;;;5042138;28;20191;-74
2022/07/31 01:24:00;;;;;;;2.63;2.07;;;18.90;99.90;;;;;;5041040;28;20195;-75
2022/07/31 01:27:02;;;;;;;5.63;2.43;;;18.90;99.90;;;;;;5050664;28;20221;-76
2022/07/31 01:29:52;;;;;;;5.78;2.22;;;18.90;99.90;;;;;;5047859;28;20317;-75
2022/07/31 01:32:42;;;;;;;3.80;2.15;;;19.00;99.90;;;;;;5037225;28;20195;-75
2022/07/31 01:35:31;;;;;;;4.03;2.17;;;19.00;99.90;;;;;;5040973;28;20246;-74
2022/07/31 01:38:21;;;;;;;1.92;1.70;;;18.90;99.90;;;;;;5041869;28;20202;-74
2022/07/31 01:41:12;;;;;;;2.88;2.17;;;19.00;99.90;;;;;;5048904;28;20245;-75
2022/07/31 01:43:57;;;;;;;3.90;1.90;;;18.90;99.90;;;;;;5046971;28;20222;-75
2022/07/31 01:46:43;;;;;;;3.28;1.90;;;19.00;99.90;;;;;;5045038;28;20242;-73
2022/07/31 01:49:30;;;;;;;4.15;2.13;;;19.00;99.90;;;;;;5044975;28;20313;-73
2022/07/31 01:52:15;;;;;;;5.72;2.00;;;18.90;99.90;;;;;;5044357;28;20233;-75
2022/07/31 01:55:00;;;;;;;4.67;2.10;;;18.90;99.90;;;;;;5041667;28;20190;-74
2022/07/31 01:57:47;;;;;;;2.20;2.00;;;18.90;99.90;;;;;;5041408;28;20210;-75
2022/07/31 02:00:31;;;;;;;2.20;1.73;;;18.90;99.90;;;;;;5034782;28;20662;-73
2022/07/31 02:03:16;;;;;;;5.13;1.88;;;18.80;99.90;;;;;;5042393;28;20195;-75
2022/07/31 02:06:02;;;;;;;3.85;1.90;;;18.90;99.90;;;;;;5045147;28;20193;-74
2022/07/31 02:08:51;;;;;;;7.15;2.10;;;18.80;99.90;;;;;;5042697;28;20210;-74
2022/07/31 02:11:35;;;;;;;3.10;1.92;;;18.80;99.90;;;;;;5047687;28;20270;-74
2022/07/31 02:14:19;;;;;;;4.13;2.00;;;18.70;99.90;;;;;;5038481;28;20182;-74
2022/07/31 02:17:04;;;;;;;2.97;2.10;;;18.80;99.90;;;;;;5038267;28;20218;-74
2022/07/31 02:19:51;;;;;;;3.47;2.08;;;18.80;99.90;;;;;;5038952;28;20250;-74
2022/07/31 02:22:36;;;;;;;4.75;2.33;;;18.70;99.90;;;;;;5040525;28;20230;-75
2022/07/31 02:25:20;;;;;;;4.60;2.10;;;18.70;99.90;;;;;;5047110;28;20189;-74
2022/07/31 02:28:09;;;;;;;7.38;2.33;;;18.70;99.90;;;;;;5047414;28;20261;-77
2022/07/31 02:30:53;;;;;;;5.07;2.50;;;18.70;99.90;;;;;;5050629;28;20186;-74
2022/07/31 02:33:43;;;;;;;2.33;1.80;;;18.70;99.90;;;;;;5038261;28;20233;-74
2022/07/31 02:36:29;;;;;;;3.80;1.80;;;18.70;99.90;;;;;;5040589;28;20210;-73
2022/07/31 02:39:15;;;;;;;4.83;2.20;;;18.70;99.90;;;;;;5046485;28;20280;-74
2022/07/31 02:42:00;;;;;;;4.82;2.40;;;18.70;99.90;;;;;;5040252;28;20244;-75
2022/07/31 02:44:45;;;;;;;3.50;2.10;;;18.60;99.90;;;;;;5042845;28;20234;-74
2022/07/31 02:47:31;;;;;;;5.00;2.90;;;18.60;99.90;;;;;;5038174;28;20191;-74
2022/07/31 02:50:17;;;;;;;4.90;2.47;;;18.60;99.90;;;;;;5037353;28;20186;-74
2022/07/31 02:53:02;;;;;;;3.80;2.30;;;18.50;99.90;;;;;;5044031;28;20194;-74
2022/07/31 02:55:48;;;;;;;2.60;2.40;;;18.50;99.90;;;;;;5036682;28;20257;-75
2022/07/31 02:58:32;;;;;;;3.60;2.50;;;18.50;99.90;;;;;;5038699;28;20211;-74
2022/07/31 03:01:16;;;;;;;4.67;2.40;;;18.50;99.90;;;;;;5037387;28;20269;-75
2022/07/31 03:04:00;;;;;;;3.13;2.37;;;18.50;99.90;;;;;;5052547;28;20221;-75
2022/07/31 03:06:47;;;;;;;5.10;2.30;;;18.50;99.90;;;;;;5047038;28;20236;-76
2022/07/31 03:09:31;;;;;;;12.90;2.43;;;18.50;99.90;;;;;;5043839;28;20580;-74
2022/07/31 03:12:16;;;;;;;3.07;2.50;;;18.50;99.90;;;;;;5043809;28;20218;-73
2022/07/31 03:15:00;;;;;;;3.83;2.40;;;18.50;99.90;;;;;;5046466;28;20186;-74
2022/07/31 03:17:46;;;;;;;3.27;2.47;;;18.50;99.90;;;;;;5055328;28;20186;-74
2022/07/31 03:20:31;;;;;;;3.22;2.42;;;18.50;99.90;;;;;;5046203;28;20222;-73
2022/07/31 03:23:16;;;;;;;3.33;2.70;;;18.50;99.90;;;;;;5033922;28;20215;-74
2022/07/31 03:26:02;;;;;;;5.43;3.07;;;18.50;99.90;;;;;;5053497;28;20209;-74
2022/07/31 03:28:47;;;;;;;2.65;2.40;;;18.50;99.90;;;;;;5051043;28;20218;-75
2022/07/31 03:31:31;;;;;;;3.37;2.50;;;18.50;99.90;;;;;;5047877;28;20187;-75
2022/07/31 03:34:16;;;;;;;4.17;2.50;;;18.50;99.90;;;;;;5052476;28;20234;-74
2022/07/31 03:37:00;;;;;;;5.13;2.23;;;18.50;99.90;;;;;;5040134;28;20225;-76
2022/07/31 03:39:44;;;;;;;4.60;2.17;;;18.50;99.90;;;;;;5043324;28;20214;-74
2022/07/31 03:42:28;;;;;;;4.60;2.10;;;18.50;99.90;;;;;;5049604;28;20178;-74
2022/07/31 03:45:13;;;;;;;4.28;2.30;;;18.60;99.90;;;;;;5046925;28;20739;-75
2022/07/31 03:47:58;;;;;;;5.10;2.50;;;18.50;99.90;;;;;;5046329;28;20261;-75
2022/07/31 03:50:43;;;;;;;6.38;2.38;;;18.60;99.90;;;;;;5031125;28;20183;-75
2022/07/31 03:53:29;;;;;;;3.40;2.10;;;18.50;99.90;;;;;;5038871;28;20252;-75
2022/07/31 03:56:15;;;;;;;3.70;2.40;;;18.50;99.90;;;;;;5042369;28;20277;-75
2022/07/31 03:58:59;;;;;;;5.20;2.70;;;18.50;99.90;;;;;;5036084;28;20226;-75
2022/07/31 04:01:43;;;;;;;6.35;2.80;;;18.50;99.90;;;;;;5044210;28;20357;-75
2022/07/31 04:04:28;;;;;;;3.28;2.88;;;18.50;99.90;;;;;;5040950;28;20180;-74
2022/07/31 04:07:12;;;;;;;4.37;2.50;;;18.50;99.90;;;;;;5045912;28;20236;-75
2022/07/31 04:09:56;;;;;;;5.03;3.00;;;18.50;99.90;;;;;;5041958;28;20215;-75
2022/07/31 04:12:40;;;;;;;4.50;3.13;;;18.50;99.90;;;;;;5042177;28;20201;-74
2022/07/31 04:15:24;;;;;;;3.83;2.93;;;18.50;99.90;;;;;;5043933;28;20281;-74
2022/07/31 04:18:08;;;;;;;5.38;2.78;;;18.50;99.90;;;;;;5043412;28;20218;-75
2022/07/31 04:20:52;;;;;;;4.25;3.47;;;18.50;99.90;;;;;;5041292;28;20242;-74
2022/07/31 04:23:36;;;;;;;5.78;3.15;;;18.50;99.90;;;;;;5042471;28;20198;-73
2022/07/31 04:26:21;;;;;;;3.83;2.83;;;18.50;99.90;;;;;;5047226;28;20237;-77
2022/07/31 04:29:05;;;;;;;7.53;3.10;;;18.50;99.90;;;;;;5039320;28;20219;-73
2022/07/31 04:31:49;;;;;;;4.47;3.20;;;18.50;99.90;;;;;;5045927;28;20186;-74
2022/07/31 04:34:33;;;;;;;5.07;3.10;;;18.50;99.90;;;;;;5037062;28;20222;-75
2022/07/31 04:37:17;;;;;;;4.83;3.60;;;18.50;99.90;;;;;;5042843;28;20643;-74
2022/07/31 04:40:01;;;;;;;3.40;2.97;;;18.50;99.90;;;;;;5041548;28;20280;-72
2022/07/31 04:42:46;;;;;;;5.23;3.47;;;18.50;99.90;;;;;;5042545;28;20263;-74
2022/07/31 04:45:30;;;;;;;4.03;3.58;;;18.40;99.90;;;;;;5041915;28;20236;-73
2022/07/31 04:48:14;;;;;;;3.97;3.40;;;18.40;99.90;;;;;;5036139;28;20206;-74
2022/07/31 04:50:58;;;;;;;8.00;4.40;;;18.40;99.90;;;;;;5044572;28;20210;-74
2022/07/31 04:53:43;;;;;;;9.03;3.80;;;18.40;99.90;;;;;;5045625;28;20241;-74
2022/07/31 04:56:36;;;;;;;4.50;4.03;;;18.40;99.90;;;;;;5044842;28;20218;-74
2022/07/31 04:59:21;;;;;;;5.05;4.00;;;18.40;99.90;;;;;;5045613;28;20730;-74
2022/07/31 05:02:06;;;;;;;4.65;4.05;;;18.40;99.90;;;;;;5044397;28;20215;-75
2022/07/31 05:04:50;;;;;;;4.65;4.15;;;18.40;99.90;;;;;;5041342;28;20192;-73
2022/07/31 05:07:34;;;;;;;4.57;4.10;;;18.40;99.90;;;;;;5047102;28;20205;-74
2022/07/31 05:13:21;;;;;;;12.43;4.23;;;18.50;99.90;;;;;;5036569;28;20241;-75
2022/07/31 05:16:10;;;;;;;4.87;4.37;;;18.60;99.90;;;;;;5046518;28;20307;-75
2022/07/31 05:18:55;;;;;;;4.30;3.90;;;18.60;99.90;;;;;;5048007;28;20218;-75
2022/07/31 05:21:39;;;;;;;7.23;4.07;;;18.70;99.90;;;;;;5038497;28;20210;-75
2022/07/31 05:24:24;;;;;;;6.70;4.07;;;18.80;99.90;;;;;;5046554;28;20229;-75
2022/07/31 05:27:08;;;;;;;5.47;3.95;;;18.90;99.90;;;;;;5049432;28;20256;-76
2022/07/31 05:29:53;;;;;;;9.20;4.40;;;18.90;99.90;;;;;;5040680;28;20268;-76
2022/07/31 05:32:37;;;;;;;6.32;3.90;;;19.00;99.90;;;;;;5048955;28;20186;-75
2022/07/31 05:35:21;;;;;;;8.73;4.23;;;19.00;99.90;;;;;;5039342;28;20191;-75
2022/07/31 05:38:05;;;;;;;7.87;4.80;;;19.00;99.90;;;;;;5047291;28;20773;-75
2022/07/31 05:40:49;;;;;;;8.15;4.43;;;19.10;99.90;;;;;;5039184;28;20186;-75
2022/07/31 05:43:34;;;;;;;5.20;4.63;;;19.10;99.90;;;;;;5037010;28;20235;-75
2022/07/31 05:46:18;;;;;;;6.20;4.68;;;19.10;99.90;;;;;;5039830;28;20211;-76
2022/07/31 05:49:02;;;;;;;6.38;4.78;;;19.20;99.90;;;;;;5046741;28;20245;-78
2022/07/31 05:51:52;;;;;;;6.22;4.63;;;19.20;99.90;;;;;;5038218;28;20191;-77
2022/07/31 05:54:36;;;;;;;4.80;4.40;;;19.30;99.90;;;;;;5034361;28;20190;-75
2022/07/31 05:57:20;;;;;;;9.15;4.85;;;19.30;99.90;;;;;;5041196;28;20214;-75
2022/07/31 06:00:05;;;;;;;8.15;4.82;;;19.40;99.90;;;;;;5043079;28;20229;-76
2022/07/31 06:02:49;;;;;;;5.72;4.88;;;19.50;99.90;;;;;;5043168;28;20218;-75
2022/07/31 06:05:34;;;;;;;4.75;4.22;;;19.60;99.90;;;;;;5044282;28;20237;-75
2022/07/31 06:08:19;;;;;;;5.18;4.15;;;19.70;99.90;;;;;;5036495;28;20220;-75
2022/07/31 06:11:04;;;;;;;7.60;4.55;;;19.70;99.90;;;;;;5041796;28;20281;-75
2022/07/31 06:13:48;;;;;;;5.47;4.38;;;19.80;99.90;;;;;;5043466;28;20203;-76
2022/07/31 06:16:32;;;;;;;8.20;4.60;;;19.80;99.90;;;;;;5039836;28;20307;-75
2022/07/31 06:19:16;;;;;;;5.82;4.28;;;19.90;99.90;;;;;;5036892;28;20218;-75
2022/07/31 06:22:00;;;;;;;4.75;4.32;;;20.00;99.90;;;;;;5047963;28;20187;-74
2022/07/31 06:24:44;;;;;;;8.95;5.00;;;20.00;99.90;;;;;;5050847;28;20191;-75
2022/07/31 06:27:28;;;;;;;6.88;4.00;;;20.10;99.90;;;;;;5041899;28;20198;-75
2022/07/31 06:30:12;;;;;;;8.43;4.32;;;20.10;99.90;;;;;;5042668;28;20219;-75
2022/07/31 06:32:56;;;;;;;5.72;3.63;;;20.20;99.90;;;;;;5034806;28;20233;-76
2022/07/31 06:35:40;;;;;;;5.80;3.92;;;20.30;99.90;;;;;;5037058;28;20213;-75
2022/07/31 06:38:25;;;;;;;9.15;4.97;;;20.40;99.90;;;;;;5046858;28;20262;-75
2022/07/31 06:41:09;;;;;;;6.20;4.53;;;20.50;99.90;;;;;;5047369;28;20218;-76
2022/07/31 06:43:53;;;;;;;7.72;4.20;;;20.50;99.90;;;;;;5047693;28;20550;-76
2022/07/31 06:46:37;;;;;;;7.75;4.55;;;20.60;99.90;;;;;;5042473;28;20190;-76
2022/07/31 06:49:21;;;;;;;8.10;4.45;;;20.70;99.90;;;;;;5039175;28;20230;-75
2022/07/31 06:52:05;;;;;;;9.50;4.63;;;20.70;99.90;;;;;;5048879;28;20269;-74
2022/07/31 06:54:49;;;;;;;8.02;4.32;;;20.80;99.90;;;;;;5045985;28;20215;-76
2022/07/31 06:57:33;;;;;;;7.47;3.83;;;20.90;99.90;;;;;;5045933;28;20344;-75
2022/07/31 07:00:19;;;;;;;9.27;4.10;;;20.90;99.90;;;;;;5040396;28;20260;-76
2022/07/31 07:03:03;;;;;;;5.85;4.28;;;21.00;99.90;;;;;;5047031;28;20210;-76
2022/07/31 07:05:48;;;;;;;6.68;3.97;;;21.00;99.90;;;;;;5047894;28;20190;-75
2022/07/31 07:08:31;;;;;;;9.07;5.82;;;21.10;99.90;;;;;;5042960;28;20323;-75
2022/07/31 07:11:16;;;;;;;9.02;4.70;;;21.10;99.90;;;;;;5035069;28;20186;-75
2022/07/31 07:14:00;;;;;;;7.03;4.38;;;21.20;99.90;;;;;;5035204;28;20187;-75
2022/07/31 07:16:44;;;;;;;6.18;3.92;;;21.20;99.90;;;;;;5037379;28;20217;-75
2022/07/31 07:19:29;;;;;;;8.68;4.95;;;21.20;99.90;;;;;;5034463;28;20775;-75
2022/07/31 07:22:13;;;;;;;8.02;5.88;;;21.20;99.90;;;;;;5042196;28;20229;-75
2022/07/31 07:24:59;;;;;;;10.45;4.70;;;21.20;99.90;;;;;;5038652;28;20238;-75
2022/07/31 07:27:43;;;;;;;8.50;4.93;;;21.20;99.90;;;;;;5040544;28;20215;-75
2022/07/31 07:30:27;;;;;;;6.80;4.05;;;21.30;99.90;;;;;;5040647;28;20191;-75
2022/07/31 07:33:11;;;;;;;10.40;4.07;;;21.30;99.90;;;;;;5042482;28;20714;-75
2022/07/31 07:35:55;;;;;;;5.15;3.72;;;21.30;99.90;;;;;;5041063;28;20631;-76
2022/07/31 07:38:39;;;;;;;5.70;4.20;;;21.30;99.90;;;;;;5034436;28;20218;-75
2022/07/31 07:41:25;;;;;;;5.28;4.20;;;21.30;99.90;;;;;;5034895;28;20191;-75
2022/07/31 07:44:09;;;;;;;6.18;3.63;;;21.30;99.90;;;;;;5042649;28;20305;-75
2022/07/31 07:46:53;;;;;;;8.45;3.10;;;21.30;99.90;;;;;;5052019;28;20329;-76
2022/07/31 07:49:37;;;;;;;4.22;3.83;;;21.30;99.90;;;;;;5041294;28;20218;-76
2022/07/31 07:52:21;;;;;;;6.80;4.43;;;21.30;99.90;;;;;;5039130;28;20183;-75
2022/07/31 07:55:06;;;;;;;8.95;4.20;;;21.30;99.90;;;;;;5043659;28;20626;-75
2022/07/31 07:57:50;;;;;;;6.82;3.90;;;21.30;99.90;;;;;;5041984;28;20242;-75
2022/07/31 08:00:34;;;;;;;8.57;3.88;;;21.40;99.90;;;;;;5048286;28;20186;-75
2022/07/31 08:03:18;;;;;;;7.20;4.55;;;21.40;99.90;;;;;;5046545;28;20650;-75
2022/07/31 08:06:03;;;;;;;5.57;4.20;;;21.40;99.90;;;;;;5041903;28;20206;-75
2022/07/31 08:08:47;;;;;;;7.60;4.00;;;21.40;99.90;;;;;;5041516;28;20299;-75
2022/07/31 08:11:31;;;;;;;4.95;3.63;;;21.40;99.90;;;;;;5044182;28;20658;-75
2022/07/31 08:14:15;;;;;;;8.63;3.38;;;21.40;99.90;;;;;;5037833;28;20671;-74
2022/07/31 08:16:59;;;;;;;5.78;2.88;;;21.50;99.90;;;;;;5053029;28;20198;-74
2022/07/31 08:19:44;;;;;;;4.47;3.00;;;21.50;99.90;;;;;;5038049;28;20257;-76
2022/07/31 08:22:28;;;;;;;5.78;2.90;;;21.50;99.90;;;;;;5045630;28;20246;-75
2022/07/31 08:25:12;;;;;;;5.00;2.53;;;21.60;99.90;;;;;;5045021;28;20238;-75
2022/07/31 08:27:56;;;;;;;6.57;2.60;;;21.60;99.90;;;;;;5038901;28;20205;-76
2022/07/31 08:30:40;;;;;;;3.28;2.25;;;21.70;99.90;;;;;;5046175;28;20194;-77
2022/07/31 08:33:24;;;;;;;5.35;2.58;;;21.70;99.90;;;;;;5048933;28;20186;-77
2022/07/31 08:36:08;;;;;;;4.53;2.28;;;21.80;99.90;;;;;;5057979;28;20194;-75
2022/07/31 08:38:52;;;;;;;4.97;2.58;;;21.80;99.90;;;;;;5035971;28;20253;-76
2022/07/31 08:41:39;;;;;;;6.07;2.55;;;21.90;99.90;;;;;;5043447;28;20186;-73
2022/07/31 08:44:23;;;;;;;2.53;2.05;;;22.00;99.90;;;;;;5034234;28;20226;-74
2022/07/31 08:47:09;;;;;;;5.72;2.22;;;22.00;99.90;;;;;;5042642;28;20286;-73
2022/07/31 08:49:55;;;;;;;5.00;2.28;;;22.10;99.90;;;;;;5040525;28;20779;-74
2022/07/31 08:52:43;;;;;;;5.57;3.00;;;22.20;99.90;;;;;;5040191;28;20616;-74
2022/07/31 08:55:30;;;;;;;3.60;1.80;;;22.20;99.90;;;;;;5042315;28;20241;-73
2022/07/31 08:58:14;;;;;;;3.83;2.10;;;22.30;99.90;;;;;;5051779;28;20277;-74
2022/07/31 09:00:58;;;;;;;4.70;2.72;;;22.40;99.90;;;;;;5046827;28;20186;-74
2022/07/31 09:03:43;;;;;;;5.22;2.78;;;22.40;99.90;;;;;;5039645;28;20203;-73
2022/07/31 09:06:27;;;;;;;5.32;2.50;;;22.40;99.90;;;;;;5042609;28;20602;-74
2022/07/31 09:09:13;;;;;;;4.88;2.42;;;22.50;99.90;;;;;;5039316;28;20214;-74
2022/07/31 09:11:58;;;;;;;7.38;2.58;;;22.60;99.90;;;;;;5049674;28;20183;-73
2022/07/31 09:14:47;;;;;;;4.90;2.63;;;22.70;99.90;;;;;;5044206;28;20198;-73
2022/07/31 09:17:34;;;;;;;7.35;3.00;;;22.80;99.90;;;;;;5044854;28;20854;-74
2022/07/31 09:20:20;;;;;;;4.60;2.63;;;22.90;99.90;;;;;;5042492;28;20210;-73
2022/07/31 09:23:06;;;;;;;3.40;2.20;;;22.90;99.90;;;;;;5050260;28;20186;-73
2022/07/31 09:25:56;;;;;;;4.13;2.10;;;23.00;99.90;;;;;;5044846;28;20265;-74
2022/07/31 09:28:46;;;;;;;2.90;1.80;;;23.10;99.90;;;;;;5041147;28;20221;-73
2022/07/31 09:31:32;;;;;;;2.55;1.80;;;23.10;99.90;;;;;;5043046;28;20238;-74
2022/07/31 09:34:25;;;;;;;4.30;1.92;;;23.20;99.90;;;;;;5043529;28;20249;-74
2022/07/31 09:37:15;;;;;;;6.93;2.25;;;23.30;99.90;;;;;;5061101;28;20187;-74
2022/07/31 09:40:00;;;;;;;3.03;1.77;;;23.40;99.90;;;;;;5039206;28;20219;-74
2022/07/31 09:42:47;;;;;;;2.80;1.70;;;23.50;99.90;;;;;;5040808;28;20655;-73
2022/07/31 09:45:31;;;;;;;4.15;2.35;;;23.60;99.90;;;;;;5048058;28;20603;-73
2022/07/31 09:48:15;;;;;;;3.17;2.30;;;23.70;99.90;;;;;;5048350;28;20255;-74
2022/07/31 09:51:07;;;;;;;3.40;2.13;;;23.80;99.90;;;;;;5040108;28;20187;-74
2022/07/31 09:53:56;;;;;;;4.30;2.00;;;23.90;99.90;;;;;;5045454;28;20190;-75
2022/07/31 09:56:42;;;;;;;2.58;1.70;;;24.10;99.90;;;;;;5049956;28;20564;-76
2022/07/31 09:59:27;;;;;;;1.30;1.20;;;24.10;99.90;;;;;;5037152;28;20272;-76
2022/07/31 10:02:14;;;;;;;3.55;1.50;;;24.20;99.90;;;;;;5049874;28;20210;-76
2022/07/31 10:04:59;;;;;;;3.85;1.92;;;24.30;99.90;;;;;;5047156;28;20188;-77
2022/07/31 10:07:45;;;;;;;3.58;2.15;;;24.30;99.90;;;;;;5039170;28;20254;-75
2022/07/31 10:10:30;;;;;;;2.15;1.77;;;24.40;99.90;;;;;;5048731;28;20198;-75
2022/07/31 10:13:18;;;;;;;3.75;2.08;;;24.30;99.90;;;;;;5043103;28;20182;-76
2022/07/31 10:16:03;;;;;;;3.55;2.40;;;24.30;99.90;;;;;;5041782;28;20274;-75
2022/07/31 10:18:54;;;;;;;2.30;2.10;;;24.40;99.90;;;;;;5048094;28;20230;-76
2022/07/31 10:21:46;;;;;;;5.88;2.88;;;24.40;99.90;;;;;;5042859;28;20222;-76
2022/07/31 10:24:41;;;;;;;4.68;2.55;;;24.40;99.90;;;;;;5033096;28;20184;-76
2022/07/31 10:27:28;;;;;;;6.38;3.20;;;24.50;99.90;;;;;;5043165;28;20751;-77
2022/07/31 10:30:12;;;;;;;7.55;3.30;;;24.50;99.90;;;;;;5034014;28;20303;-76
2022/07/31 10:32:58;;;;;;;6.22;2.88;;;24.60;99.90;;;;;;5052918;28;20197;-75
2022/07/31 10:35:53;;;;;;;4.28;3.08;;;24.60;99.90;;;;;;5044437;28;20236;-76
2022/07/31 10:38:49;;;;;;;4.25;3.08;;;24.60;99.90;;;;;;5036343;28;20291;-76
2022/07/31 10:41:59;;;;;;;9.52;3.33;;;24.60;99.90;;;;;;5045567;28;20206;-75
2022/07/31 10:44:49;;;;;;;5.38;3.17;;;24.60;99.90;;;;;;5039452;28;20244;-77
2022/07/31 10:47:33;;;;;;;4.93;3.38;;;24.70;99.90;;;;;;5049266;28;20253;-77
2022/07/31 10:50:23;;;;;;;6.85;4.78;;;24.70;99.90;;;;;;5045631;28;20761;-75
2022/07/31 10:53:09;;;;;;;10.07;5.15;;;24.80;99.90;;;;;;5037449;28;20183;-76
2022/07/31 10:56:04;;;;;;;14.07;6.50;;;24.80;99.90;;;;;;5041534;28;20190;-76
2022/07/31 10:58:50;;;;;;;6.93;5.53;;;24.70;99.90;;;;;;5040205;28;20239;-77
2022/07/31 11:01:49;;;;;;;7.72;6.63;;;24.70;99.90;;;;;;5038992;28;20206;-78
2022/07/31 11:04:34;;;;;;;10.45;5.88;;;24.70;99.90;;;;;;5036033;28;20318;-76
2022/07/31 11:07:20;;;;;;;7.35;5.60;;;24.60;99.90;;;;;;5039385;28;20356;-76
2022/07/31 11:10:16;;;;;;;10.25;5.75;;;24.60;99.90;;;;;;5045006;28;20273;-76
2022/07/31 11:13:06;;;;;;;7.95;6.05;;;24.60;99.90;;;;;;5044948;28;20215;-76
2022/07/31 11:16:02;;;;;;;10.43;6.00;;;24.60;99.90;;;;;;5042249;28;20238;-76
2022/07/31 11:19:01;;;;;;;8.10;5.72;;;24.60;99.90;;;;;;5048226;28;20705;-76
2022/07/31 11:21:45;;;;;;;7.10;5.40;;;24.60;99.90;;;;;;5037749;28;20219;-76
2022/07/31 11:24:30;;;;;;;12.82;4.78;;;24.50;99.90;;;;;;5046731;28;20237;-76
2022/07/31 11:27:14;;;;;;;8.55;4.65;;;24.50;99.90;;;;;;5042657;28;20272;-77
2022/07/31 11:30:07;;;;;;;8.48;4.60;;;24.60;99.90;;;;;;5040669;28;20219;-76
2022/07/31 11:32:52;;;;;;;6.70;4.18;;;24.50;99.90;;;;;;5051120;28;20230;-75
2022/07/31 11:35:38;;;;;;;6.47;4.57;;;24.50;99.90;;;;;;5040681;28;20214;-76
2022/07/31 11:38:27;;;;;;;7.18;3.50;;;24.40;99.90;;;;;;5045178;28;20356;-78
2022/07/31 11:41:12;;;;;;;8.05;3.95;;;24.40;99.90;;;;;;5042626;28;20221;-78
2022/07/31 11:43:56;;;;;;;6.63;4.10;;;24.30;99.90;;;;;;5045798;28;20195;-77
2022/07/31 11:46:40;;;;;;;9.27;4.30;;;24.30;99.90;;;;;;5046434;28;20215;-78
2022/07/31 11:49:24;;;;;;;9.25;4.32;;;24.20;99.90;;;;;;5058761;28;20215;-76
2022/07/31 11:52:11;;;;;;;7.82;4.63;;;24.20;99.90;;;;;;5044624;28;20251;-77
2022/07/31 11:55:05;;;;;;;6.35;4.68;;;24.10;99.90;;;;;;5039773;28;20209;-77
2022/07/31 11:57:50;;;;;;;7.95;4.43;;;24.10;99.90;;;;;;5052325;28;20602;-78
2022/07/31 12:00:34;;;;;;;4.35;3.60;;;24.10;99.90;;;;;;5045157;28;20843;-77
2022/07/31 12:03:25;;;;;;;5.13;4.03;;;24.00;99.90;;;;;;5044814;28;20198;-77
2022/07/31 12:06:10;;;;;;;7.82;4.38;;;24.10;99.90;;;;;;5053048;28;20289;-78
2022/07/31 12:08:55;;;;;;;6.75;3.97;;;24.10;99.90;;;;;;5055235;28;20215;-77
2022/07/31 12:11:39;;;;;;;4.40;3.75;;;24.10;99.90;;;;;;5041711;28;20196;-76
2022/07/31 12:14:28;;;;;;;6.53;4.32;;;24.10;99.90;;;;;;5039628;28;20245;-78
2022/07/31 12:17:22;;;;;;;8.82;4.65;;;24.70;99.90;;;;;;5045953;28;20190;-77
2022/07/31 12:20:10;;;;;;;8.63;4.05;;;24.20;99.90;;;;;;5051420;28;20673;-77
2022/07/31 12:22:58;;;;;;;8.00;4.30;;;24.30;99.90;;;;;;5046667;28;20195;-78
2022/07/31 12:25:45;;;;;;;11.35;4.72;;;24.30;99.90;;;;;;5042541;28;20196;-77
2022/07/31 12:28:29;;;;;;;8.70;4.45;;;24.30;99.90;;;;;;5046820;28;20219;-77
2022/07/31 12:31:14;;;;;;;6.40;4.25;;;24.30;99.90;;;;;;5050825;28;20182;-78
2022/07/31 12:33:58;;;;;;;6.20;4.40;;;24.30;99.90;;;;;;5047638;28;20279;-79
2022/07/31 12:36:43;;;;;;;8.02;4.57;;;24.20;99.90;;;;;;5049125;28;20673;-78
2022/07/31 12:39:28;;;;;;;9.00;4.30;;;24.20;99.90;;;;;;5045479;28;20421;-77
2022/07/31 12:42:27;;;;;;;8.02;4.53;;;24.20;99.90;;;;;;5048369;28;20190;-78
2022/07/31 12:45:12;;;;;;;9.25;5.85;;;24.10;99.90;;;;;;5039837;28;20267;-76
2022/07/31 12:47:56;;;;;;;7.25;4.57;;;24.10;99.90;;;;;;5046267;28;20231;-76
2022/07/31 12:50:40;;;;;;;9.10;5.15;;;24.10;99.90;;;;;;5045919;28;20563;-78
2022/07/31 12:53:31;;;;;;;6.78;5.38;;;24.20;99.90;;;;;;5033530;28;20191;-76
2022/07/31 12:56:16;;;;;;;11.05;5.85;;;24.10;99.90;;;;;;5046925;28;20206;-77
2022/07/31 12:59:01;;;;;;;7.30;5.25;;;24.10;99.90;;;;;;5039269;28;20261;-78
2022/07/31 13:01:45;;;;;;;6.93;5.55;;;24.10;99.90;;;;;;5043388;28;20206;-77
2022/07/31 13:04:30;;;;;;;7.90;5.47;;;24.10;99.90;;;;;;5044760;28;20190;-77
2022/07/31 13:07:14;;;;;;;10.85;5.70;;;24.10;99.90;;;;;;5045896;28;20210;-78
2022/07/31 13:09:59;;;;;;;7.47;4.95;;;24.10;99.90;;;;;;5039399;28;20580;-77
2022/07/31 13:12:44;;;;;;;10.38;5.43;;;24.10;99.90;;;;;;5042701;28;20187;-77
2022/07/31 13:15:28;;;;;;;5.60;4.93;;;24.20;99.90;;;;;;5041176;28;20246;-76
2022/07/31 13:18:13;;;;;;;7.78;5.13;;;24.20;99.90;;;;;;5042649;28;20186;-77
2022/07/31 13:20:58;;;;;;;8.30;5.38;;;24.30;99.90;;;;;;5045369;28;20186;-77
2022/07/31 13:23:42;;;;;;;7.35;5.00;;;24.30;99.90;;;;;;5047654;28;20215;-79
2022/07/31 13:26:28;;;;;;;6.95;5.20;;;24.30;99.90;;;;;;5042442;28;20233;-77
2022/07/31 13:29:13;;;;;;;7.45;5.00;;;24.30;99.90;;;;;;5039524;28;20222;-77
2022/07/31 13:31:58;;;;;;;9.82;5.90;;;24.40;99.90;;;;;;5039454;28;20183;-77
2022/07/31 13:34:42;;;;;;;5.75;5.07;;;24.40;99.90;;;;;;5036259;28;20195;-79
2022/07/31 13:37:27;;;;;;;14.52;4.88;;;24.40;99.90;;;;;;5041498;28;20251;-77
2022/07/31 13:40:12;;;;;;;4.40;4.00;;;24.50;99.90;;;;;;5047024;28;20249;-76
2022/07/31 13:42:56;;;;;;;9.35;5.32;;;24.50;99.90;;;;;;5046540;28;20203;-77
2022/07/31 13:45:41;;;;;;;6.70;4.65;;;24.50;99.90;;;;;;5049910;28;20186;-77
2022/07/31 13:48:25;;;;;;;8.57;4.88;;;24.50;99.90;;;;;;5043114;28;20317;-77
2022/07/31 13:51:10;;;;;;;10.65;5.00;;;24.40;99.90;;;;;;5054995;28;20194;-78
2022/07/31 13:53:54;;;;;;;8.48;5.00;;;24.50;99.90;;;;;;5049683;28;20586;-77
2022/07/31 13:56:40;;;;;;;6.30;5.47;;;24.50;99.90;;;;;;5041159;28;20686;-78
2022/07/31 13:59:26;;;;;;;7.10;4.03;;;24.50;99.90;;;;;;5040434;28;20717;-77
2022/07/31 14:02:10;;;;;;;7.13;4.15;;;24.40;99.90;;;;;;5048014;28;20226;-75
2022/07/31 14:04:55;;;;;;;4.22;3.50;;;24.40;99.90;;;;;;5056371;28;20252;-78
2022/07/31 14:07:39;;;;;;;6.85;4.55;;;24.30;99.90;;;;;;5042943;28;20186;-77
2022/07/31 14:10:24;;;;;;;8.15;4.50;;;24.30;99.90;;;;;;5043553;28;20194;-79
2022/07/31 14:13:08;;;;;;;7.18;4.75;;;24.20;99.90;;;;;;5048429;28;20194;-77
2022/07/31 14:15:53;;;;;;;5.50;4.07;;;24.00;99.90;;;;;;5042986;28;20585;-78
2022/07/31 14:18:38;;;;;;;5.47;4.57;;;23.80;99.90;;;;;;5049664;28;20303;-79
2022/07/31 14:21:22;;;;;;;7.90;4.95;;;23.60;99.90;;;;;;5047898;28;20233;-79
2022/07/31 14:24:07;;;;;;;5.82;5.22;;;23.40;99.90;;;;;;5034850;28;20198;-78